Time;durP1;ratioP1;P1;durP2;ratioP2;P2;SDS_P1;SDS_P2;PMS_P1;PMS_P2;Temp;Humidity;BMP_temperature;BMP_pressure;BME280_temperature;BME280_humidity;BME280_pressure;Samples;Min_cycle;Max_cycle;Signal;HPM_P1;HPM_P2
2023/10/07 00:01:26;;;;;;;20.83;11.50;;;11.50;99.90;;;;;;5022888;28;20049;-41
2023/10/07 00:03:56;;;;;;;16.98;10.40;;;11.40;99.90;;;;;;5027647;28;20565;-41
2023/10/07 00:06:27;;;;;;;18.35;10.52;;;11.30;99.90;;;;;;5022121;28;20426;-41
2023/10/07 00:08:58;;;;;;;19.35;11.25;;;11.20;99.90;;;;;;5026732;28;20049;-40
2023/10/07 00:11:27;;;;;;;18.40;10.77;;;11.20;99.90;;;;;;5018685;28;20041;-42
2023/10/07 00:13:55;;;;;;;19.98;10.73;;;11.10;99.90;;;;;;5024366;28;20046;-42
2023/10/07 00:16:36;;;;;;;22.30;12.43;;;11.10;99.90;;;;;;5027641;28;20053;-40
2023/10/07 00:19:03;;;;;;;20.42;10.20;;;11.10;99.90;;;;;;5028714;28;20048;-41
2023/10/07 00:21:55;;;;;;;19.02;11.25;;;11.10;99.90;;;;;;5021132;28;20050;-40
2023/10/07 00:24:25;;;;;;;20.63;11.40;;;11.00;99.90;;;;;;5038707;28;20170;-42
2023/10/07 00:26:53;;;;;;;22.30;11.33;;;11.00;99.90;;;;;;5034155;28;20045;-41
2023/10/07 00:29:23;;;;;;;18.02;11.55;;;11.00;99.90;;;;;;5030456;28;20072;-41
2023/10/07 00:31:52;;;;;;;19.52;10.52;;;11.00;99.90;;;;;;5037889;28;20052;-41
2023/10/07 00:34:27;;;;;;;20.75;10.80;;;11.00;99.90;;;;;;5033041;28;20215;-43
2023/10/07 00:36:58;;;;;;;19.70;11.18;;;11.00;99.90;;;;;;5026397;28;20095;-41
2023/10/07 00:39:31;;;;;;;21.02;11.20;;;10.90;99.90;;;;;;5021003;28;20042;-40
2023/10/07 00:41:59;;;;;;;18.40;10.20;;;10.90;99.90;;;;;;5025385;28;20046;-42
2023/10/07 00:44:35;;;;;;;19.63;10.98;;;10.90;99.90;;;;;;5023085;28;20116;-41
2023/10/07 00:49:41;;;;;;;16.27;9.55;;;10.90;99.90;;;;;;5026287;28;20040;-41
2023/10/07 00:52:13;;;;;;;19.85;11.25;;;10.80;99.90;;;;;;5030574;28;20056;-41
2023/10/07 00:54:50;;;;;;;19.98;11.25;;;10.80;99.90;;;;;;5021484;28;20077;-42
2023/10/07 00:57:53;;;;;;;16.25;10.57;;;10.70;99.90;;;;;;5023812;28;20038;-42
2023/10/07 01:00:55;;;;;;;19.92;10.43;;;10.70;99.90;;;;;;5020751;28;20113;-42
2023/10/07 01:08:37;;;;;;;23.48;12.05;;;10.60;99.90;;;;;;5022052;28;20041;-40
2023/10/07 01:11:19;;;;;;;21.25;11.88;;;10.70;99.90;;;;;;5018295;28;20034;-40
2023/10/07 01:13:50;;;;;;;21.85;11.05;;;10.70;99.90;;;;;;5015394;28;20132;-39
2023/10/07 01:16:28;;;;;;;17.92;11.07;;;10.70;99.90;;;;;;5013705;28;20125;-40
2023/10/07 01:19:05;;;;;;;21.40;11.88;;;10.80;99.90;;;;;;5015665;28;20041;-41
2023/10/07 01:21:33;;;;;;;22.95;11.65;;;10.80;99.90;;;;;;5008974;28;20129;-41
2023/10/07 01:24:06;;;;;;;17.88;10.68;;;10.80;99.90;;;;;;5012651;28;20053;-41
2023/10/07 01:26:40;;;;;;;22.60;11.43;;;10.70;99.90;;;;;;5023856;28;20049;-41
2023/10/07 01:29:15;;;;;;;21.58;11.80;;;10.70;99.90;;;;;;5012607;28;20053;-42
2023/10/07 01:32:00;;;;;;;22.38;12.02;;;10.70;99.90;;;;;;5020207;28;20115;-42
2023/10/07 01:34:35;;;;;;;23.77;11.98;;;10.60;99.90;;;;;;5020944;28;20108;-41
2023/10/07 01:37:03;;;;;;;22.02;11.52;;;10.60;99.90;;;;;;5021998;28;20042;-40
2023/10/07 01:39:31;;;;;;;21.88;11.52;;;10.70;99.90;;;;;;5020713;28;20050;-40
2023/10/07 01:42:02;;;;;;;22.63;11.85;;;10.70;99.90;;;;;;5020115;28;20065;-41
2023/10/07 01:44:31;;;;;;;20.20;11.35;;;10.70;99.90;;;;;;5014078;28;20050;-41
2023/10/07 01:46:58;;;;;;;23.00;11.48;;;10.70;99.90;;;;;;5015169;28;20112;-42
2023/10/07 01:49:30;;;;;;;21.00;10.98;;;10.70;99.90;;;;;;5009531;28;20601;-41
2023/10/07 01:51:58;;;;;;;19.27;11.40;;;10.70;99.90;;;;;;5012959;28;20048;-41
2023/10/07 01:54:28;;;;;;;24.60;10.88;;;10.60;99.90;;;;;;5012958;28;20038;-42
2023/10/07 01:56:56;;;;;;;21.98;11.82;;;10.60;99.90;;;;;;5014714;28;20270;-41
2023/10/07 01:59:23;;;;;;;23.65;11.63;;;10.60;99.90;;;;;;5007245;28;20042;-42
2023/10/07 02:01:54;;;;;;;23.83;11.30;;;10.60;99.90;;;;;;5008686;28;20077;-42
2023/10/07 02:04:27;;;;;;;23.20;11.43;;;10.60;99.90;;;;;;5007671;28;20042;-42
2023/10/07 02:06:58;;;;;;;19.92;10.48;;;10.60;99.90;;;;;;5011311;28;20049;-41
2023/10/07 02:09:27;;;;;;;25.20;12.10;;;10.50;99.90;;;;;;5019976;28;20045;-40
2023/10/07 02:12:07;;;;;;;22.90;12.00;;;10.50;99.90;;;;;;5017429;28;20050;-41
2023/10/07 02:14:37;;;;;;;22.98;10.50;;;10.40;99.90;;;;;;5011115;28;20585;-42
2023/10/07 02:17:08;;;;;;;20.83;11.30;;;10.40;99.90;;;;;;5013914;28;20042;-40
2023/10/07 02:19:40;;;;;;;23.77;11.05;;;10.40;99.90;;;;;;5009225;28;20071;-42
2023/10/07 02:22:09;;;;;;;19.27;11.40;;;10.40;99.90;;;;;;5022028;28;20503;-41
2023/10/07 02:24:43;;;;;;;20.98;10.43;;;10.40;99.90;;;;;;5011986;28;20054;-41
2023/10/07 02:27:18;;;;;;;24.90;11.00;;;10.40;99.90;;;;;;5012308;28;20153;-40
2023/10/07 02:29:57;;;;;;;18.55;9.75;;;10.50;99.90;;;;;;5011677;28;20044;-41
2023/10/07 02:32:25;;;;;;;22.80;10.85;;;10.50;99.90;;;;;;5009811;28;20115;-41
2023/10/07 02:34:54;;;;;;;23.13;10.57;;;10.50;99.90;;;;;;5021010;28;20052;-41
2023/10/07 02:37:25;;;;;;;21.38;10.65;;;10.50;99.90;;;;;;5018395;28;20050;-41
2023/10/07 02:39:56;;;;;;;19.23;10.05;;;10.50;99.90;;;;;;5010209;28;20149;-40
2023/10/07 02:42:24;;;;;;;19.70;10.30;;;10.40;99.90;;;;;;5009986;28;20046;-42
2023/10/07 02:45:00;;;;;;;19.95;10.73;;;10.40;99.90;;;;;;5011919;28;20124;-41
2023/10/07 02:47:31;;;;;;;20.45;10.77;;;10.40;99.90;;;;;;5012599;28;20068;-41
2023/10/07 02:50:02;;;;;;;21.98;11.40;;;10.40;99.90;;;;;;5019783;28;20143;-42
2023/10/07 02:52:37;;;;;;;17.88;10.32;;;10.40;99.90;;;;;;5015533;28;20045;-42
2023/10/07 02:55:37;;;;;;;20.77;10.32;;;10.40;99.90;;;;;;5012174;28;20441;-41
2023/10/07 02:57:57;;;;;;;21.83;10.73;;;10.40;99.90;;;;;;5009939;28;20038;-41
2023/10/07 03:00:49;;;;;;;21.33;11.60;;;10.40;99.90;;;;;;5010652;28;20042;-40
2023/10/07 03:05:58;;;;;;;23.85;11.40;;;10.50;99.90;;;;;;5011755;28;20049;-43
2023/10/07 03:08:40;;;;;;;21.00;9.90;;;10.50;99.90;;;;;;5013753;28;20452;-42
2023/10/07 03:11:13;;;;;;;27.65;10.93;;;10.40;99.90;;;;;;5015710;28;20050;-41
2023/10/07 03:13:45;;;;;;;20.67;10.98;;;10.40;99.90;;;;;;5012389;28;20415;-41
2023/10/07 03:24:13;;;;;;;25.58;11.35;;;10.30;99.90;;;;;;5010741;28;20543;-41
2023/10/07 03:26:45;;;;;;;20.90;10.57;;;10.20;99.90;;;;;;5013368;28;20054;-42
2023/10/07 03:29:30;;;;;;;20.83;11.30;;;10.20;99.90;;;;;;5012882;28;20053;-41
2023/10/07 03:31:59;;;;;;;21.13;10.70;;;10.20;99.90;;;;;;5014306;28;20561;-40
2023/10/07 03:34:27;;;;;;;22.27;10.30;;;10.20;99.90;;;;;;5017995;28;20111;-40
2023/10/07 03:37:14;;;;;;;19.17;10.35;;;10.20;99.90;;;;;;5017961;28;20052;-42
2023/10/07 03:40:25;;;;;;;18.58;10.73;;;10.20;99.90;;;;;;5018458;28;20050;-41
2023/10/07 03:42:45;;;;;;;;;;;10.20;99.90;;;;;;5013420;28;20073;-40
2023/10/07 03:45:14;;;;;;;20.42;9.82;;;10.20;99.90;;;;;;5011142;28;19928;-41
2023/10/07 03:47:46;;;;;;;20.38;10.15;;;10.20;99.90;;;;;;5009992;28;20491;-42
2023/10/07 03:52:59;;;;;;;21.00;10.27;;;10.30;99.90;;;;;;5014932;28;20121;-39
2023/10/07 03:55:29;;;;;;;19.83;10.18;;;10.30;99.90;;;;;;5022248;28;20136;-40
2023/10/07 03:57:56;;;;;;;19.98;10.13;;;10.30;99.90;;;;;;5018258;28;20049;-40
2023/10/07 04:00:30;;;;;;;22.85;10.23;;;10.30;99.90;;;;;;5010467;28;20117;-40
2023/10/07 04:03:07;;;;;;;18.77;10.25;;;10.20;99.90;;;;;;5014882;28;20073;-41
2023/10/07 04:05:42;;;;;;;21.65;10.38;;;10.20;99.90;;;;;;5023654;28;20526;-41
2023/10/07 04:08:09;;;;;;;22.55;11.07;;;10.10;99.90;;;;;;5010609;28;20041;-42
2023/10/07 04:10:43;;;;;;;21.65;10.30;;;10.10;99.90;;;;;;5014284;28;20049;-40
2023/10/07 04:13:24;;;;;;;18.95;10.38;;;10.10;99.90;;;;;;5015981;28;20046;-40
2023/10/07 04:15:51;;;;;;;20.38;10.48;;;10.10;99.90;;;;;;5017596;28;20056;-40
2023/10/07 04:18:34;;;;;;;20.33;10.88;;;10.10;99.90;;;;;;5023810;28;20042;-40
2023/10/07 04:21:02;;;;;;;17.67;10.38;;;10.10;99.90;;;;;;5015653;28;20439;-38
2023/10/07 04:23:29;;;;;;;22.55;11.13;;;10.00;99.90;;;;;;5010662;28;20121;-39
2023/10/07 04:26:05;;;;;;;20.80;11.98;;;10.00;99.90;;;;;;5008678;28;20058;-41
2023/10/07 04:28:33;;;;;;;19.75;10.68;;;10.00;99.90;;;;;;5014074;28;20470;-40
2023/10/07 04:31:03;;;;;;;20.55;11.48;;;9.90;99.90;;;;;;5011635;28;20066;-39
2023/10/07 04:33:39;;;;;;;27.08;12.18;;;9.90;99.90;;;;;;5012230;28;20034;-42
2023/10/07 04:36:13;;;;;;;22.63;11.77;;;10.00;99.90;;;;;;5023159;28;20041;-39
2023/10/07 04:43:59;;;;;;;26.52;11.77;;;9.90;99.90;;;;;;5025539;28;20045;-39
2023/10/07 04:46:29;;;;;;;21.25;11.23;;;9.80;99.90;;;;;;5021355;28;20056;-40
2023/10/07 04:49:11;;;;;;;21.10;10.90;;;9.90;99.90;;;;;;5024592;28;20076;-40
2023/10/07 04:54:20;;;;;;;22.48;11.88;;;9.90;99.90;;;;;;5025158;28;20056;-41
2023/10/07 04:56:54;;;;;;;24.60;11.65;;;9.90;99.90;;;;;;5038323;28;20080;-40
2023/10/07 04:59:21;;;;;;;24.35;11.88;;;9.90;99.90;;;;;;5030286;28;20041;-40
2023/10/07 05:01:56;;;;;;;21.38;11.88;;;9.90;99.90;;;;;;5028141;28;20079;-39
2023/10/07 05:04:24;;;;;;;23.25;11.02;;;9.90;99.90;;;;;;5020790;28;20092;-40
2023/10/07 05:06:53;;;;;;;26.95;12.02;;;9.90;99.90;;;;;;5020830;28;20538;-39
2023/10/07 05:09:21;;;;;;;20.45;10.93;;;9.90;99.90;;;;;;5022944;28;20053;-40
2023/10/07 05:11:49;;;;;;;19.05;10.65;;;9.90;99.90;;;;;;5022099;28;20133;-39
2023/10/07 05:14:22;;;;;;;23.10;11.30;;;9.90;99.90;;;;;;5016804;28;20420;-40
2023/10/07 05:16:51;;;;;;;23.17;11.75;;;9.80;99.90;;;;;;5017370;28;20045;-39
2023/10/07 05:19:22;;;;;;;21.10;11.45;;;9.80;99.90;;;;;;5019799;28;20046;-39
2023/10/07 05:22:14;;;;;;;19.50;10.95;;;9.80;99.90;;;;;;5019994;28;20045;-41
2023/10/07 05:24:46;;;;;;;19.97;10.50;;;9.80;99.90;;;;;;5012740;28;20482;-39
2023/10/07 05:27:15;;;;;;;21.60;10.52;;;9.80;99.90;;;;;;5016680;28;20107;-39
2023/10/07 05:29:43;;;;;;;22.95;11.27;;;9.80;99.90;;;;;;5013561;28;20493;-40
2023/10/07 05:32:11;;;;;;;21.23;10.75;;;9.70;99.90;;;;;;5009887;28;20419;-40
2023/10/07 05:34:39;;;;;;;19.45;9.70;;;9.70;99.90;;;;;;5015751;28;20045;-41
2023/10/07 05:37:11;;;;;;;24.60;11.05;;;9.80;99.90;;;;;;5011861;28;20042;-39
2023/10/07 05:39:41;;;;;;;21.35;9.60;;;9.90;99.90;;;;;;5016033;28;20069;-39
2023/10/07 05:42:11;;;;;;;19.52;10.07;;;9.90;99.90;;;;;;5011779;28;20046;-38
2023/10/07 05:44:40;;;;;;;21.15;10.18;;;9.90;99.90;;;;;;5023814;28;20118;-40
2023/10/07 05:47:09;;;;;;;23.25;9.82;;;9.90;99.90;;;;;;5024049;28;20045;-41
2023/10/07 05:49:37;;;;;;;22.45;10.45;;;9.90;99.90;;;;;;5029406;28;20073;-41
2023/10/07 05:52:05;;;;;;;23.30;10.88;;;10.00;99.90;;;;;;5033806;28;20076;-41
2023/10/07 05:54:33;;;;;;;20.00;10.18;;;10.10;99.90;;;;;;5026399;28;20049;-38
2023/10/07 05:57:06;;;;;;;21.10;10.00;;;10.10;99.90;;;;;;5019867;28;20081;-39
2023/10/07 05:59:33;;;;;;;20.88;10.05;;;10.20;99.90;;;;;;5018365;28;20145;-38
2023/10/07 06:02:05;;;;;;;21.08;10.13;;;10.20;99.90;;;;;;5022473;28;20046;-42
2023/10/07 06:04:34;;;;;;;18.23;9.95;;;10.30;99.90;;;;;;5023126;28;20049;-40
2023/10/07 06:07:02;;;;;;;22.25;10.82;;;10.30;99.90;;;;;;5021623;28;20068;-39
2023/10/07 06:09:29;;;;;;;21.17;10.52;;;10.30;99.90;;;;;;5024336;28;20049;-39
2023/10/07 06:11:57;;;;;;;26.40;11.00;;;10.30;99.90;;;;;;5023114;28;20037;-39
2023/10/07 06:14:24;;;;;;;20.75;10.60;;;10.30;99.90;;;;;;5021183;28;20068;-39
2023/10/07 06:16:55;;;;;;;21.63;10.27;;;10.40;99.90;;;;;;5016300;28;20052;-40
2023/10/07 06:19:24;;;;;;;25.30;10.18;;;10.50;99.90;;;;;;5022025;28;20057;-38
2023/10/07 06:21:51;;;;;;;21.65;9.93;;;10.50;99.90;;;;;;5017717;28;20101;-39
2023/10/07 06:24:23;;;;;;;24.33;10.90;;;10.60;99.90;;;;;;5020900;28;20052;-40
2023/10/07 06:26:54;;;;;;;19.75;10.20;;;10.60;99.90;;;;;;5015611;28;20493;-40
2023/10/07 06:29:21;;;;;;;22.52;10.48;;;10.70;99.90;;;;;;5016804;28;20511;-40
2023/10/07 06:34:41;;;;;;;22.83;10.55;;;10.70;99.90;;;;;;4995071;28;20053;-39
2023/10/07 06:37:08;;;;;;;22.33;10.77;;;10.70;99.90;;;;;;5023625;28;20509;-39
2023/10/07 06:39:37;;;;;;;23.85;10.35;;;10.70;99.90;;;;;;5021986;28;20052;-38
2023/10/07 06:42:06;;;;;;;22.52;11.82;;;10.80;99.90;;;;;;5018443;28;20053;-39
2023/10/07 06:44:38;;;;;;;19.30;10.55;;;10.80;99.90;;;;;;5020031;28;20060;-39
2023/10/07 06:47:11;;;;;;;22.77;9.77;;;10.90;99.90;;;;;;5018986;28;20060;-42
2023/10/07 06:49:39;;;;;;;24.20;11.32;;;10.90;99.90;;;;;;5013349;28;20045;-39
2023/10/07 06:52:07;;;;;;;18.52;10.02;;;11.00;99.90;;;;;;5019966;28;20103;-42
2023/10/07 06:54:34;;;;;;;20.52;10.02;;;11.10;99.90;;;;;;5028903;28;20137;-39
2023/10/07 06:57:04;;;;;;;27.83;11.60;;;11.30;99.90;;;;;;5019410;28;20049;-39
2023/10/07 06:59:31;;;;;;;19.33;10.38;;;11.40;99.90;;;;;;5021108;28;20468;-40
2023/10/07 07:02:10;;;;;;;23.48;11.15;;;11.50;99.90;;;;;;5021335;28;20141;-38
2023/10/07 07:04:41;;;;;;;27.98;15.00;;;11.70;99.90;;;;;;5023720;28;20154;-40
2023/10/07 07:07:11;;;;;;;26.02;12.20;;;11.80;99.90;;;;;;5031111;28;20386;-39
2023/10/07 07:12:21;;;;;;;22.65;9.65;;;12.10;99.90;;;;;;5023640;28;20425;-41
2023/10/07 07:14:59;;;;;;;23.02;11.27;;;12.20;99.90;;;;;;5027463;28;20050;-39
2023/10/07 07:17:29;;;;;;;22.95;10.23;;;12.30;99.90;;;;;;5026949;28;20082;-39
2023/10/07 07:22:45;;;;;;;21.83;10.18;;;12.70;99.90;;;;;;5034398;28;20064;-40
2023/10/07 07:27:51;;;;;;;20.88;10.60;;;12.80;99.90;;;;;;5020682;28;20077;-40
2023/10/07 07:30:20;;;;;;;18.88;10.32;;;12.90;99.90;;;;;;5036506;28;20155;-41
2023/10/07 07:32:55;;;;;;;20.08;10.75;;;12.90;99.90;;;;;;5032082;28;20045;-42
2023/10/07 07:35:40;;;;;;;26.20;12.10;;;12.90;99.90;;;;;;5020545;28;20063;-39
2023/10/07 07:40:49;;;;;;;21.85;10.77;;;13.00;99.90;;;;;;5026543;28;20145;-39
2023/10/07 07:43:19;;;;;;;22.05;11.20;;;13.00;99.90;;;;;;5027600;28;20046;-40
2023/10/07 07:45:56;;;;;;;21.75;11.80;;;13.20;99.90;;;;;;5029194;28;20121;-38
2023/10/07 07:48:25;;;;;;;19.20;10.73;;;13.40;99.90;;;;;;5023845;28;20073;-39
2023/10/07 07:50:55;;;;;;;22.15;11.02;;;13.60;99.90;;;;;;5026243;28;20081;-40
2023/10/07 07:53:22;;;;;;;17.27;10.15;;;13.80;99.90;;;;;;5029250;28;20157;-38
2023/10/07 07:55:55;;;;;;;23.13;11.90;;;14.10;99.90;;;;;;5015668;28;20146;-38
2023/10/07 07:58:23;;;;;;;25.27;12.90;;;14.50;99.90;;;;;;5019971;28;20129;-39
2023/10/07 08:00:58;;;;;;;23.42;11.32;;;14.70;99.90;;;;;;5021412;28;20048;-39
2023/10/07 08:03:26;;;;;;;19.17;11.43;;;14.80;99.90;;;;;;5018833;28;20080;-38
2023/10/07 08:05:54;;;;;;;24.45;10.15;;;15.00;99.90;;;;;;5027652;28;20119;-40
2023/10/07 08:08:29;;;;;;;20.50;9.95;;;15.10;99.90;;;;;;5027876;28;20055;-41
2023/10/07 08:10:59;;;;;;;20.05;10.50;;;15.00;99.90;;;;;;5016334;28;20104;-38
2023/10/07 08:13:27;;;;;;;20.05;10.27;;;15.30;99.90;;;;;;5023394;28;20477;-40
2023/10/07 08:15:56;;;;;;;20.10;10.20;;;15.30;99.90;;;;;;5029979;28;20041;-39
2023/10/07 08:18:28;;;;;;;18.63;10.88;;;15.20;99.90;;;;;;5024319;28;20041;-40
2023/10/07 08:21:06;;;;;;;21.75;10.95;;;15.20;99.90;;;;;;5026291;28;20040;-38
2023/10/07 08:23:40;;;;;;;19.10;10.50;;;15.20;99.90;;;;;;5019271;28;20141;-39
2023/10/07 08:26:11;;;;;;;19.50;11.45;;;15.40;99.90;;;;;;5026085;28;20088;-39
2023/10/07 08:31:44;;;;;;;16.52;9.90;;;15.70;99.90;;;;;;4989084;28;20054;-39
2023/10/07 08:34:13;;;;;;;14.52;9.20;;;15.90;99.90;;;;;;4990776;28;20073;-38
2023/10/07 08:36:43;;;;;;;20.27;10.32;;;16.00;99.90;;;;;;5002431;28;20054;-40
2023/10/07 08:39:11;;;;;;;22.50;12.30;;;15.90;99.90;;;;;;4998558;28;20146;-38
2023/10/07 08:41:40;;;;;;;17.27;10.35;;;16.10;99.90;;;;;;4994035;28;20089;-39
2023/10/07 08:44:15;;;;;;;19.83;10.20;;;16.00;99.90;;;;;;4995615;28;20053;-40
2023/10/07 08:46:54;;;;;;;19.75;10.73;;;16.20;99.90;;;;;;4993787;28;20108;-40
2023/10/07 08:49:26;;;;;;;20.42;11.15;;;16.70;99.90;;;;;;4997241;28;20064;-41
2023/10/07 08:51:57;;;;;;;21.48;12.85;;;17.00;99.90;;;;;;4993738;28;20094;-43
2023/10/07 08:54:31;;;;;;;21.42;11.85;;;17.40;99.90;;;;;;4992493;28;20046;-40
2023/10/07 08:57:08;;;;;;;16.80;9.98;;;17.80;99.90;;;;;;4994607;28;20105;-39
2023/10/07 08:59:38;;;;;;;16.40;9.57;;;17.70;99.90;;;;;;4988791;28;20042;-39
2023/10/07 09:02:12;;;;;;;19.23;10.32;;;17.70;99.90;;;;;;4987215;28;20052;-42
2023/10/07 09:04:40;;;;;;;18.85;10.65;;;17.70;99.90;;;;;;4993272;28;20043;-39
2023/10/07 09:07:11;;;;;;;30.67;15.73;;;17.90;99.90;;;;;;4999597;28;20046;-40
2023/10/07 09:09:39;;;;;;;22.45;13.10;;;17.90;99.90;;;;;;5017594;28;20551;-40
2023/10/07 09:12:29;;;;;;;16.70;10.07;;;18.00;99.90;;;;;;5018698;28;20052;-42
2023/10/07 09:14:59;;;;;;;16.98;10.27;;;18.10;99.90;;;;;;5009245;28;20281;-41
2023/10/07 09:17:27;;;;;;;18.55;9.82;;;18.30;99.90;;;;;;5022671;28;20091;-41
2023/10/07 09:20:06;;;;;;;18.40;10.57;;;18.00;99.90;;;;;;5012327;28;20050;-43
2023/10/07 09:22:35;;;;;;;17.33;10.27;;;17.90;99.90;;;;;;5008940;28;20046;-43
2023/10/07 09:25:17;;;;;;;15.07;9.07;;;17.60;99.90;;;;;;5011888;28;20042;-40
2023/10/07 09:27:54;;;;;;;14.68;8.65;;;17.40;99.90;;;;;;5022927;28;20037;-40
2023/10/07 09:33:14;;;;;;;12.07;7.22;;;17.30;99.90;;;;;;5028920;28;20424;-42
2023/10/07 09:36:00;;;;;;;12.60;7.97;;;17.20;99.90;;;;;;5011358;28;20153;-39
2023/10/07 09:38:33;;;;;;;11.77;7.63;;;17.20;99.90;;;;;;5021690;28;20033;-41
2023/10/07 09:41:12;;;;;;;16.40;7.82;;;17.20;99.90;;;;;;5018962;28;20093;-43
2023/10/07 09:43:47;;;;;;;12.70;7.88;;;17.30;99.90;;;;;;5012146;28;20073;-38
2023/10/07 09:46:24;;;;;;;10.77;7.35;;;17.30;99.90;;;;;;5025499;28;20189;-35
2023/10/07 09:49:05;;;;;;;12.65;7.88;;;17.10;99.90;;;;;;5031696;28;20313;-38
2023/10/07 09:51:44;;;;;;;16.65;8.13;;;17.10;99.90;;;;;;5034577;28;20080;-41
2023/10/07 09:54:47;;;;;;;12.63;7.70;;;17.00;99.90;;;;;;5021833;28;20057;-40
2023/10/07 09:57:30;;;;;;;13.10;7.85;;;17.00;99.90;;;;;;5021881;28;20080;-41
2023/10/07 10:03:14;;;;;;;11.60;7.93;;;17.20;99.90;;;;;;5016418;28;20037;-40
2023/10/07 10:05:49;;;;;;;11.77;7.28;;;17.40;99.90;;;;;;5030033;28;20061;-41
2023/10/07 10:08:44;;;;;;;11.15;7.53;;;17.70;99.90;;;;;;5018375;28;20104;-42
2023/10/07 10:11:30;;;;;;;9.60;6.45;;;18.00;99.90;;;;;;5018466;28;20099;-40
2023/10/07 10:16:48;;;;;;;12.18;7.90;;;18.40;99.90;;;;;;5016963;28;20123;-41
2023/10/07 10:19:47;;;;;;;14.43;7.60;;;18.50;99.90;;;;;;5010247;28;20065;-39
2023/10/07 10:22:23;;;;;;;12.07;7.57;;;18.30;99.90;;;;;;5010809;28;20072;-41
2023/10/07 10:24:54;;;;;;;13.57;8.02;;;18.20;99.90;;;;;;5013741;28;20042;-42
2023/10/07 10:27:22;;;;;;;15.73;8.23;;;17.90;99.90;;;;;;5011595;28;20427;-41
2023/10/07 10:30:04;;;;;;;12.23;7.75;;;18.00;99.90;;;;;;5017765;28;20403;-41
2023/10/07 10:32:36;;;;;;;14.45;7.80;;;17.90;99.90;;;;;;5012285;28;20065;-40
2023/10/07 10:35:06;;;;;;;;;;;17.90;99.90;;;;;;5019902;28;20099;-40
2023/10/07 10:37:37;;;;;;;13.73;7.53;;;17.80;99.90;;;;;;5014609;28;20016;-41
2023/10/07 10:40:14;;;;;;;13.30;8.15;;;17.70;99.90;;;;;;5030760;28;20209;-41
2023/10/07 10:42:43;;;;;;;11.20;7.68;;;17.60;99.90;;;;;;5012613;28;20140;-37
2023/10/07 10:45:21;;;;;;;12.18;7.68;;;17.40;99.90;;;;;;5026841;28;20049;-41
2023/10/07 10:47:53;;;;;;;10.15;7.47;;;17.40;99.90;;;;;;5018729;28;20045;-40
2023/10/07 10:50:28;;;;;;;17.98;7.85;;;17.30;99.90;;;;;;5024158;28;20080;-38
2023/10/07 10:53:00;;;;;;;15.18;7.80;;;17.50;99.90;;;;;;5023574;28;20050;-42
2023/10/07 10:55:34;;;;;;;16.33;7.85;;;17.60;99.90;;;;;;5023676;28;20395;-40
2023/10/07 10:58:01;;;;;;;12.57;7.30;;;17.60;99.90;;;;;;5022925;28;20043;-40
2023/10/07 11:00:29;;;;;;;16.27;6.82;;;17.70;99.90;;;;;;5021122;28;20536;-41
2023/10/07 11:02:56;;;;;;;10.77;6.90;;;17.70;99.90;;;;;;5022665;28;20041;-43
2023/10/07 11:05:25;;;;;;;10.80;6.90;;;17.80;99.90;;;;;;5027011;28;20060;-40
2023/10/07 11:07:54;;;;;;;11.23;7.03;;;17.80;99.90;;;;;;5024496;28;20133;-40
2023/10/07 11:10:24;;;;;;;19.50;7.65;;;17.70;99.90;;;;;;5033549;28;20049;-40
2023/10/07 11:12:54;;;;;;;15.82;7.78;;;17.80;99.90;;;;;;5030658;28;20041;-40
2023/10/07 11:15:25;;;;;;;11.68;7.03;;;17.90;99.90;;;;;;5040662;28;20046;-42
2023/10/07 11:18:13;;;;;;;14.75;7.20;;;18.00;99.90;;;;;;5024556;28;20052;-41
2023/10/07 11:20:42;;;;;;;11.90;6.82;;;18.10;99.90;;;;;;5023852;28;20077;-40
2023/10/07 11:23:15;;;;;;;11.95;7.35;;;18.20;99.90;;;;;;5029105;28;20045;-40
2023/10/07 11:25:42;;;;;;;14.38;7.28;;;18.20;99.90;;;;;;5034872;28;20057;-41
2023/10/07 11:28:11;;;;;;;12.88;7.22;;;18.10;99.90;;;;;;5037558;28;20049;-41
2023/10/07 11:30:44;;;;;;;12.80;7.10;;;18.10;99.90;;;;;;5022015;28;20046;-42
2023/10/07 11:33:15;;;;;;;12.27;6.55;;;18.20;99.90;;;;;;5022490;28;20045;-41
2023/10/07 11:35:55;;;;;;;12.93;7.03;;;18.30;99.90;;;;;;5021621;28;20141;-40
2023/10/07 11:38:25;;;;;;;14.00;7.18;;;18.00;99.90;;;;;;5026352;28;20042;-40
2023/10/07 11:40:52;;;;;;;10.45;6.25;;;18.00;99.90;;;;;;5020188;28;20041;-41
2023/10/07 11:43:20;;;;;;;12.40;6.97;;;18.10;99.90;;;;;;5018681;28;20100;-38
2023/10/07 11:45:50;;;;;;;13.73;7.25;;;18.00;99.90;;;;;;5019759;28;20046;-39
2023/10/07 11:48:21;;;;;;;12.38;6.63;;;18.20;99.90;;;;;;5012639;28;20096;-39
2023/10/07 11:50:49;;;;;;;15.38;7.00;;;18.40;99.90;;;;;;5020577;28;20092;-41
2023/10/07 11:53:19;;;;;;;11.88;7.03;;;18.60;99.90;;;;;;5020021;28;20049;-41
2023/10/07 11:55:47;;;;;;;12.23;6.97;;;18.70;99.90;;;;;;5019911;28;20057;-40
2023/10/07 11:58:15;;;;;;;11.13;6.70;;;18.70;99.90;;;;;;5019780;28;20077;-40
2023/10/07 12:00:43;;;;;;;13.27;7.28;;;18.60;99.90;;;;;;5020923;28;20049;-41
2023/10/07 12:03:10;;;;;;;13.88;7.65;;;18.80;99.90;;;;;;5019758;28;20048;-41
2023/10/07 12:05:43;;;;;;;12.27;7.47;;;18.60;99.90;;;;;;5023078;28;20045;-37
2023/10/07 12:08:13;;;;;;;16.98;7.85;;;18.40;99.90;;;;;;5021635;28;20096;-40
2023/10/07 12:10:41;;;;;;;11.65;6.47;;;18.70;99.90;;;;;;5021170;28;20056;-41
2023/10/07 12:13:11;;;;;;;12.18;7.35;;;18.70;99.90;;;;;;5017285;28;20058;-39
2023/10/07 12:15:42;;;;;;;14.43;7.30;;;19.20;99.90;;;;;;5020315;28;20417;-38
2023/10/07 12:18:29;;;;;;;12.57;7.28;;;19.40;99.90;;;;;;5029244;28;20048;-40
2023/10/07 12:21:00;;;;;;;11.88;7.65;;;19.70;99.90;;;;;;5024651;28;20155;-40
2023/10/07 12:23:29;;;;;;;14.95;7.63;;;19.60;99.90;;;;;;5019080;28;20053;-41
2023/10/07 12:25:57;;;;;;;11.18;7.20;;;19.40;99.90;;;;;;5022644;28;20717;-42
2023/10/07 12:28:24;;;;;;;11.88;7.22;;;19.30;99.90;;;;;;5025551;28;20045;-43
2023/10/07 12:30:52;;;;;;;11.60;7.28;;;19.60;99.90;;;;;;5030894;28;20101;-42
2023/10/07 12:33:19;;;;;;;13.45;7.30;;;19.60;99.90;;;;;;5026725;28;20171;-41
2023/10/07 12:35:49;;;;;;;12.85;7.03;;;19.50;99.90;;;;;;5017387;28;20438;-41
2023/10/07 12:38:17;;;;;;;12.85;7.53;;;19.90;99.90;;;;;;5022930;28;20125;-42
2023/10/07 12:40:46;;;;;;;13.38;7.82;;;20.30;99.90;;;;;;5027680;28;20051;-42
2023/10/07 12:43:14;;;;;;;11.05;7.60;;;20.80;99.90;;;;;;5022691;28;20129;-41
2023/10/07 12:45:42;;;;;;;15.68;7.60;;;21.90;99.90;;;;;;5012913;28;20136;-42
2023/10/07 12:48:09;;;;;;;13.20;7.60;;;22.60;99.90;;;;;;5024309;28;20053;-40
2023/10/07 12:50:42;;;;;;;12.98;8.00;;;23.50;99.90;;;;;;5018270;28;20046;-40
2023/10/07 12:53:10;;;;;;;14.95;7.30;;;23.40;99.90;;;;;;5022172;28;20042;-40
2023/10/07 12:55:39;;;;;;;14.57;7.30;;;23.20;99.90;;;;;;5028855;28;20041;-40
2023/10/07 12:58:09;;;;;;;12.43;7.55;;;22.40;99.90;;;;;;5023250;28;20056;-40
2023/10/07 13:00:36;;;;;;;11.25;7.13;;;22.60;99.90;;;;;;5021564;28;20511;-40
2023/10/07 13:03:07;;;;;;;10.25;7.85;;;23.00;99.90;;;;;;5017304;28;20518;-40
2023/10/07 13:05:37;;;;;;;11.77;7.63;;;23.40;99.90;;;;;;5024780;28;20045;-43
2023/10/07 13:08:15;;;;;;;14.20;7.97;;;23.50;99.90;;;;;;5027592;28;20783;-41
2023/10/07 13:10:43;;;;;;;9.98;7.38;;;23.10;99.90;;;;;;5018440;28;20034;-40
2023/10/07 13:13:13;;;;;;;11.77;7.25;;;23.10;99.90;;;;;;5019999;28;20042;-42
2023/10/07 13:15:42;;;;;;;10.40;7.40;;;22.80;99.90;;;;;;5018017;28;20148;-41
2023/10/07 13:18:10;;;;;;;13.52;7.35;;;22.20;99.90;;;;;;5018640;28;20092;-41
2023/10/07 13:20:38;;;;;;;11.75;7.25;;;21.50;99.90;;;;;;5021688;28;20133;-40
2023/10/07 13:23:10;;;;;;;14.88;7.60;;;21.60;99.90;;;;;;5018341;28;20049;-42
2023/10/07 13:25:38;;;;;;;;;;;21.90;99.90;;;;;;5024466;28;20046;-40
2023/10/07 13:28:05;;;;;;;10.20;7.53;;;21.60;99.90;;;;;;5027044;28;19932;-41
2023/10/07 13:30:35;;;;;;;10.05;7.13;;;21.80;99.90;;;;;;5019832;28;20041;-41
2023/10/07 13:33:05;;;;;;;13.35;6.93;;;21.50;99.90;;;;;;5022230;28;20080;-44
2023/10/07 13:35:33;;;;;;;12.88;7.07;;;21.20;99.90;;;;;;5016824;28;20440;-42
2023/10/07 13:38:01;;;;;;;11.55;7.40;;;21.30;99.90;;;;;;5025935;28;20045;-41
2023/10/07 13:40:30;;;;;;;9.02;6.82;;;21.30;99.90;;;;;;5027576;28;20076;-41
2023/10/07 13:42:59;;;;;;;11.70;7.00;;;21.10;99.90;;;;;;5021199;28;20053;-40
2023/10/07 13:45:30;;;;;;;12.15;6.40;;;21.00;99.90;;;;;;5013033;28;20068;-40
2023/10/07 13:47:58;;;;;;;12.98;7.38;;;20.70;99.90;;;;;;5020254;28;20125;-41
2023/10/07 13:50:27;;;;;;;11.85;7.07;;;20.60;99.90;;;;;;5022495;28;20051;-42
2023/10/07 13:53:12;;;;;;;12.27;7.55;;;20.40;99.90;;;;;;5013148;28;20083;-42